createdAt,value
2022-12-08T00:00:00.885Z,35.80
2022-12-08T00:02:27.655Z,37.63
2022-12-08T00:05:13.191Z,34.40
2022-12-08T00:07:58.521Z,35.67
2022-12-08T00:10:48.319Z,34.60
2022-12-08T00:13:11.601Z,36.80
2022-12-08T00:15:38.180Z,36.20
2022-12-08T00:18:05.008Z,31.70
2022-12-08T00:20:31.563Z,35.93
2022-12-08T00:22:58.213Z,32.87
2022-12-08T00:25:24.766Z,30.30
2022-12-08T00:27:51.298Z,32.63
2022-12-08T00:30:17.866Z,34.67
2022-12-08T00:32:44.664Z,34.13
2022-12-08T00:35:11.210Z,33.67
2022-12-08T00:37:37.770Z,32.63
2022-12-08T00:40:04.729Z,33.00
2022-12-08T00:42:31.571Z,29.77
2022-12-08T00:44:58.466Z,32.43
2022-12-08T00:47:25.304Z,32.30
2022-12-08T00:49:51.995Z,33.17
2022-12-08T00:52:18.570Z,30.80
2022-12-08T00:54:45.077Z,31.67
2022-12-08T00:57:11.763Z,31.83
2022-12-08T00:59:38.311Z,31.03
2022-12-08T01:02:05.886Z,29.87
2022-12-08T01:04:32.525Z,32.20
2022-12-08T01:06:59.232Z,32.20
2022-12-08T01:09:26.710Z,31.37
2022-12-08T01:11:53.258Z,29.00
2022-12-08T01:14:19.834Z,28.00
2022-12-08T01:16:46.460Z,27.90
2022-12-08T01:19:13.845Z,27.07
2022-12-08T01:21:41.044Z,28.97
2022-12-08T01:24:10.399Z,23.83
2022-12-08T01:26:37.007Z,28.97
2022-12-08T01:29:03.594Z,23.63
2022-12-08T01:31:30.146Z,23.80
2022-12-08T01:33:56.982Z,20.90
2022-12-08T01:36:23.634Z,22.97
2022-12-08T01:38:50.713Z,21.50
2022-12-08T01:41:18.807Z,23.90
2022-12-08T01:43:56.628Z,22.93
2022-12-08T01:46:23.754Z,20.80
2022-12-08T01:48:55.735Z,22.83
2022-12-08T01:51:22.986Z,21.03
2022-12-08T01:53:50.066Z,21.57
2022-12-08T01:56:20.862Z,20.83
2022-12-08T01:58:49.661Z,20.00
2022-12-08T02:01:16.609Z,21.40
2022-12-08T02:03:45.869Z,19.13
2022-12-08T02:06:12.546Z,16.90
2022-12-08T02:08:40.337Z,17.60
2022-12-08T02:11:10.842Z,19.93
2022-12-08T02:13:37.902Z,18.70
2022-12-08T02:16:12.337Z,13.30
2022-12-08T02:19:07.969Z,17.10
2022-12-08T02:21:51.334Z,17.97
2022-12-08T02:24:22.879Z,16.67
2022-12-08T02:26:52.484Z,16.57
2022-12-08T02:29:18.958Z,15.93
2022-12-08T02:32:08.822Z,18.67
2022-12-08T02:34:35.369Z,17.07
2022-12-08T02:37:10.926Z,17.60
2022-12-08T02:39:43.470Z,18.33
2022-12-08T02:42:30.205Z,16.90
2022-12-08T02:44:59.729Z,19.00
2022-12-08T02:47:27.635Z,18.07
2022-12-08T02:49:55.102Z,18.03
2022-12-08T02:52:21.766Z,18.90
2022-12-08T02:54:53.212Z,17.07
2022-12-08T02:57:22.889Z,14.57
2022-12-08T02:59:56.502Z,19.57
2022-12-08T03:02:23.174Z,18.87
2022-12-08T03:04:56.232Z,17.90
2022-12-08T03:07:25.728Z,18.40
2022-12-08T03:09:59.613Z,18.40
2022-12-08T03:12:30.561Z,18.47
2022-12-08T03:14:59.784Z,18.17
2022-12-08T03:17:27.465Z,16.90
2022-12-08T03:19:54.454Z,19.40
2022-12-08T03:22:22.534Z,15.03
2022-12-08T03:24:49.428Z,18.57
2022-12-08T03:27:19.526Z,13.50
2022-12-08T03:29:47.149Z,20.30
2022-12-08T03:32:20.249Z,17.80
2022-12-08T03:34:47.902Z,19.23
2022-12-08T03:37:14.638Z,21.73
2022-12-08T03:39:41.394Z,22.27
2022-12-08T03:42:07.940Z,22.83
2022-12-08T03:44:34.564Z,17.50
2022-12-08T03:47:01.036Z,23.50
2022-12-08T03:49:27.643Z,23.80
2022-12-08T03:51:54.223Z,23.10
2022-12-08T03:54:20.839Z,23.90
2022-12-08T03:56:47.516Z,26.30
2022-12-08T03:59:14.450Z,24.03
2022-12-08T04:01:41.029Z,24.83
2022-12-08T04:04:07.803Z,28.97
2022-12-08T04:06:34.400Z,23.37
2022-12-08T04:09:00.971Z,28.50
2022-12-08T04:11:27.475Z,27.20
2022-12-08T04:13:54.050Z,24.80
2022-12-08T04:16:22.349Z,29.30
2022-12-08T04:18:48.951Z,32.50
2022-12-08T04:21:15.602Z,35.60
2022-12-08T04:23:42.122Z,31.70
2022-12-08T04:26:09.272Z,34.60
2022-12-08T04:28:35.952Z,34.70
2022-12-08T04:31:02.772Z,35.67
2022-12-08T04:33:29.448Z,33.60
2022-12-08T04:35:56.113Z,37.30
2022-12-08T04:38:22.817Z,34.30
2022-12-08T04:40:49.358Z,34.70
2022-12-08T04:43:15.934Z,37.50
2022-12-08T04:45:42.985Z,32.80
2022-12-08T04:48:12.173Z,29.43
2022-12-08T04:50:41.699Z,30.10
2022-12-08T04:53:09.120Z,32.30
2022-12-08T04:55:38.077Z,29.03
2022-12-08T04:58:04.724Z,29.23
2022-12-08T05:00:31.342Z,31.10
2022-12-08T05:02:58.028Z,26.40
2022-12-08T05:05:24.662Z,33.57
2022-12-08T05:07:51.304Z,32.77
2022-12-08T05:10:17.896Z,27.60
2022-12-08T05:12:44.490Z,27.67
2022-12-08T05:15:11.137Z,31.30
2022-12-08T05:17:37.752Z,30.30
2022-12-08T05:20:05.094Z,27.53
2022-12-08T05:22:31.952Z,29.87
2022-12-08T05:24:58.587Z,31.50
2022-12-08T05:27:25.122Z,26.40
2022-12-08T05:29:51.719Z,28.13
2022-12-08T05:32:18.283Z,34.37
2022-12-08T05:34:44.869Z,27.33
2022-12-08T05:37:11.537Z,28.20
2022-12-08T05:39:38.128Z,27.80
2022-12-08T05:42:04.786Z,25.10
2022-12-08T05:44:31.367Z,26.20
2022-12-08T05:46:57.950Z,24.80
2022-12-08T05:49:24.534Z,26.93
2022-12-08T05:51:51.111Z,28.33
2022-12-08T05:54:17.691Z,27.30
2022-12-08T05:56:44.296Z,27.27
2022-12-08T05:59:10.897Z,29.87
2022-12-08T06:01:37.601Z,31.33
2022-12-08T06:04:04.318Z,27.53
2022-12-08T06:06:31.110Z,27.70
2022-12-08T06:08:57.668Z,26.30
2022-12-08T06:11:25.815Z,25.43
2022-12-08T06:13:52.464Z,30.63
2022-12-08T06:16:19.154Z,25.47
2022-12-08T06:18:45.827Z,25.43
2022-12-08T06:21:13.569Z,26.43
2022-12-08T06:23:40.129Z,24.57
2022-12-08T06:26:09.156Z,25.10
2022-12-08T06:28:36.020Z,22.87
2022-12-08T06:31:32.139Z,25.80
2022-12-08T06:33:58.830Z,25.13
2022-12-08T06:36:26.481Z,25.10
2022-12-08T06:38:53.270Z,24.70
2022-12-08T06:41:19.917Z,24.07
2022-12-08T06:43:46.823Z,24.43
2022-12-08T06:46:14.796Z,25.00
2022-12-08T06:48:41.524Z,27.70
2022-12-08T06:51:12.530Z,27.63
2022-12-08T06:53:39.489Z,26.83
2022-12-08T06:56:06.708Z,27.37
2022-12-08T06:58:34.085Z,24.47
2022-12-08T07:01:04.709Z,22.70
2022-12-08T07:03:31.390Z,24.57
2022-12-08T07:06:03.449Z,23.67
2022-12-08T07:08:30.898Z,25.73
2022-12-08T07:10:57.669Z,24.87
2022-12-08T07:13:24.290Z,27.43
2022-12-08T07:15:51.073Z,26.40
2022-12-08T07:18:17.805Z,30.23
2022-12-08T07:20:44.367Z,23.60
2022-12-08T07:23:10.988Z,28.00
2022-12-08T07:25:37.684Z,32.70
2022-12-08T07:28:08.043Z,21.53
2022-12-08T07:30:34.806Z,30.07
2022-12-08T07:33:02.502Z,25.97
2022-12-08T07:35:29.055Z,29.90
2022-12-08T07:37:55.675Z,31.43
2022-12-08T07:40:22.307Z,27.20
2022-12-08T07:42:48.886Z,29.20
2022-12-08T07:45:15.614Z,29.17
2022-12-08T07:47:42.459Z,17.87
2022-12-08T07:50:09.149Z,25.37
2022-12-08T07:52:36.073Z,26.17
2022-12-08T07:55:02.928Z,27.23
2022-12-08T07:57:29.494Z,23.87
2022-12-08T07:59:56.055Z,23.03
2022-12-08T08:02:25.212Z,25.00
2022-12-08T08:04:53.236Z,25.10
2022-12-08T08:07:20.091Z,22.70
2022-12-08T08:09:46.836Z,23.80
2022-12-08T08:15:00.404Z,18.30
2022-12-08T08:17:27.390Z,20.80
2022-12-08T08:19:54.118Z,21.30
2022-12-08T08:22:20.730Z,18.67
2022-12-08T08:24:47.359Z,19.03
2022-12-08T08:27:14.080Z,20.50
2022-12-08T08:29:43.753Z,20.80
2022-12-08T08:32:10.317Z,21.43
2022-12-08T08:34:36.936Z,20.43
2022-12-08T08:37:03.573Z,21.17
2022-12-08T08:39:31.821Z,21.63
2022-12-08T08:41:58.443Z,20.20
2022-12-08T08:44:25.081Z,20.33
2022-12-08T08:46:52.091Z,19.63
2022-12-08T08:49:18.786Z,16.00
2022-12-08T08:51:45.907Z,12.87
2022-12-08T08:54:12.472Z,10.37
2022-12-08T08:56:39.044Z,9.97
2022-12-08T08:59:05.590Z,9.13
2022-12-08T09:01:32.218Z,9.73
2022-12-08T09:03:58.895Z,11.90
2022-12-08T09:06:26.154Z,12.60
2022-12-08T09:08:52.785Z,13.70
2022-12-08T09:11:19.862Z,10.93
2022-12-08T09:13:50.127Z,13.60
2022-12-08T09:16:17.235Z,17.53
2022-12-08T09:18:43.893Z,17.10
2022-12-08T09:21:16.678Z,18.90
2022-12-08T09:23:43.370Z,22.77
2022-12-08T09:26:09.962Z,21.50
2022-12-08T09:28:36.831Z,25.03
2022-12-08T09:31:03.757Z,23.87
2022-12-08T09:33:30.423Z,25.03
2022-12-08T09:35:56.987Z,26.47
2022-12-08T09:38:23.595Z,22.00
2022-12-08T09:40:53.910Z,18.60
2022-12-08T09:43:39.186Z,24.47
2022-12-08T09:46:07.476Z,25.80
2022-12-08T09:48:43.183Z,23.90
2022-12-08T09:51:10.517Z,18.53
2022-12-08T09:53:42.343Z,13.43
2022-12-08T09:56:12.730Z,17.23
2022-12-08T09:58:39.294Z,15.90
2022-12-08T10:01:08.402Z,15.43
2022-12-08T10:03:34.982Z,16.00
2022-12-08T10:06:01.692Z,18.00
2022-12-08T10:08:41.899Z,18.37
2022-12-08T10:11:13.692Z,17.07
2022-12-08T10:13:52.223Z,17.87
2022-12-08T10:16:29.260Z,15.80
2022-12-08T10:19:00.304Z,18.87
2022-12-08T10:21:28.644Z,21.60
2022-12-08T10:24:01.254Z,14.33
2022-12-08T10:26:28.383Z,12.87
2022-12-08T10:29:01.187Z,13.37
2022-12-08T10:31:28.270Z,13.47
2022-12-08T10:34:00.308Z,17.10
2022-12-08T10:36:47.057Z,13.43
2022-12-08T10:39:32.719Z,15.50
2022-12-08T10:42:16.412Z,17.20
2022-12-08T10:44:59.744Z,16.70
2022-12-08T10:47:27.640Z,17.83
2022-12-08T10:50:13.132Z,18.70
2022-12-08T10:52:40.220Z,18.30
2022-12-08T10:55:17.212Z,20.77
2022-12-08T10:57:43.776Z,20.27
2022-12-08T11:00:14.409Z,20.90
2022-12-08T11:02:55.217Z,21.27
2022-12-08T11:05:23.056Z,20.43
2022-12-08T11:07:53.935Z,18.87
2022-12-08T11:10:27.107Z,17.57
2022-12-08T11:12:53.757Z,19.53
2022-12-08T11:15:20.587Z,18.27
2022-12-08T11:17:59.454Z,16.93
2022-12-08T11:20:25.978Z,17.20
2022-12-08T11:22:54.168Z,16.43
2022-12-08T11:25:22.782Z,18.77
2022-12-08T11:27:50.587Z,15.50
2022-12-08T11:30:54.524Z,13.20
2022-12-08T11:33:22.656Z,17.10
2022-12-08T11:36:04.459Z,18.57
2022-12-08T11:38:31.948Z,12.20
2022-12-08T11:41:03.249Z,15.43
2022-12-08T11:43:52.821Z,17.80
2022-12-08T11:46:27.540Z,15.43
2022-12-08T11:49:04.364Z,13.83
2022-12-08T11:51:38.011Z,13.60
2022-12-08T11:54:14.140Z,13.03
2022-12-08T11:56:46.001Z,14.33
2022-12-08T11:59:22.835Z,11.03
2022-12-08T12:01:49.663Z,12.17
2022-12-08T12:04:26.316Z,12.83
2022-12-08T12:07:25.845Z,12.70
2022-12-08T12:10:08.421Z,15.00
2022-12-08T12:12:40.098Z,13.50
2022-12-08T12:15:12.865Z,11.20
2022-12-08T12:17:58.329Z,11.57
2022-12-08T12:20:34.431Z,11.40
2022-12-08T12:23:07.377Z,11.90
2022-12-08T12:25:35.554Z,13.40
2022-12-08T12:28:03.636Z,13.07
2022-12-08T12:30:48.394Z,12.40
2022-12-08T12:33:15.623Z,12.87
2022-12-08T12:35:43.285Z,11.83
2022-12-08T12:38:37.690Z,15.37
2022-12-08T12:41:05.418Z,12.80
2022-12-08T12:43:33.585Z,12.33
2022-12-08T12:46:19.204Z,11.53
2022-12-08T12:48:45.850Z,13.43
2022-12-08T12:51:35.734Z,11.60
2022-12-08T12:54:22.639Z,12.00
2022-12-08T12:56:56.378Z,13.90
2022-12-08T12:59:29.035Z,13.27
2022-12-08T13:01:55.615Z,12.13
2022-12-08T13:04:29.605Z,12.20
2022-12-08T13:06:56.327Z,14.00
2022-12-08T13:09:24.243Z,12.43
2022-12-08T13:11:53.206Z,13.20
2022-12-08T13:14:27.728Z,14.80
2022-12-08T13:16:56.235Z,13.80
2022-12-08T13:19:22.885Z,15.37
2022-12-08T13:21:49.429Z,14.03
2022-12-08T13:24:20.405Z,14.17
2022-12-08T13:26:50.983Z,14.40
2022-12-08T13:29:24.349Z,13.47
2022-12-08T13:32:00.749Z,12.90
2022-12-08T13:34:37.161Z,11.93
2022-12-08T13:37:16.095Z,15.33
2022-12-08T13:39:46.692Z,14.53
2022-12-08T13:42:13.420Z,15.40
2022-12-08T13:45:19.839Z,14.80
2022-12-08T13:47:41.480Z,13.83
2022-12-08T13:50:55.732Z,15.03
2022-12-08T13:58:51.387Z,12.87
2022-12-08T14:01:22.596Z,11.43
2022-12-08T14:04:22.033Z,12.40
2022-12-08T14:06:42.546Z,9.63
2022-12-08T14:09:16.034Z,11.67
2022-12-08T14:11:44.619Z,12.00
2022-12-08T14:14:38.930Z,11.63
2022-12-08T14:17:17.358Z,11.83
2022-12-08T14:19:45.148Z,12.83
2022-12-08T14:22:13.675Z,11.40
2022-12-08T14:24:40.758Z,13.73
2022-12-08T14:27:08.307Z,12.97
2022-12-08T14:29:38.399Z,13.43
2022-12-08T14:32:26.341Z,11.70
2022-12-08T14:34:57.638Z,9.83
2022-12-08T14:37:25.921Z,10.17
2022-12-08T14:39:53.194Z,12.70
2022-12-08T14:42:24.637Z,11.87
2022-12-08T14:45:02.217Z,12.77
2022-12-08T14:47:30.021Z,11.30
2022-12-08T14:49:57.445Z,10.53
2022-12-08T14:52:24.598Z,10.90
2022-12-08T14:54:51.658Z,11.23
2022-12-08T14:57:18.250Z,10.90
2022-12-08T14:59:46.087Z,9.67
2022-12-08T15:02:15.674Z,10.43
2022-12-08T15:04:44.166Z,10.10
2022-12-08T15:07:15.476Z,9.73
2022-12-08T15:09:43.432Z,10.57
2022-12-08T15:12:13.023Z,11.27
2022-12-08T15:15:16.104Z,10.57
2022-12-08T15:17:58.037Z,12.23
2022-12-08T15:20:33.344Z,12.33
2022-12-08T15:23:02.085Z,12.40
2022-12-08T15:25:28.717Z,12.60
2022-12-08T15:27:57.017Z,10.77
2022-12-08T15:30:26.251Z,10.27
2022-12-08T15:32:54.110Z,12.80
2022-12-08T15:35:21.356Z,13.60
2022-12-08T15:37:48.031Z,13.90
2022-12-08T15:40:18.834Z,11.07
2022-12-08T15:42:45.454Z,10.00
2022-12-08T15:45:13.775Z,13.07
2022-12-08T15:47:41.298Z,11.03
2022-12-08T15:50:14.111Z,11.50
2022-12-08T15:52:40.681Z,12.57
2022-12-08T15:55:07.330Z,11.53
2022-12-08T15:58:30.890Z,11.27
2022-12-08T16:00:51.173Z,11.57
2022-12-08T16:03:51.603Z,11.17
2022-12-08T16:06:57.607Z,12.53
2022-12-08T16:09:06.311Z,11.20
2022-12-08T16:12:06.627Z,12.97
2022-12-08T16:15:39.093Z,11.77
2022-12-08T16:17:21.275Z,12.23
2022-12-08T16:19:49.144Z,12.97
2022-12-08T16:22:51.619Z,12.87
2022-12-08T16:25:17.693Z,13.03
2022-12-08T16:28:08.296Z,13.27
2022-12-08T16:30:31.766Z,13.50
2022-12-08T16:32:58.262Z,13.73
2022-12-08T16:35:24.959Z,14.37
2022-12-08T16:37:51.577Z,13.90
2022-12-08T16:40:18.165Z,13.43
2022-12-08T16:42:45.794Z,13.03
2022-12-08T16:45:18.368Z,13.20
2022-12-08T16:47:49.702Z,13.20
2022-12-08T16:50:16.322Z,14.20
2022-12-08T16:52:43.193Z,17.40
2022-12-08T16:55:10.940Z,12.83
2022-12-08T16:57:37.469Z,13.20
2022-12-08T17:00:06.675Z,13.80
2022-12-08T17:02:33.868Z,14.23
2022-12-08T17:05:00.458Z,11.80
2022-12-08T17:07:27.287Z,12.73
2022-12-08T17:09:53.753Z,11.60
2022-12-08T17:12:20.448Z,13.37
2022-12-08T17:14:46.985Z,6.80
2022-12-08T17:17:13.532Z,10.73
2022-12-08T17:19:40.052Z,9.60
2022-12-08T17:22:06.654Z,10.53
2022-12-08T17:24:33.230Z,10.00
2022-12-08T17:27:06.698Z,11.10
2022-12-08T17:29:33.888Z,9.80
2022-12-08T17:32:00.480Z,9.70
2022-12-08T17:34:27.090Z,10.23
2022-12-08T17:36:53.707Z,11.50
2022-12-08T17:39:20.231Z,9.80
2022-12-08T17:41:47.606Z,10.07
2022-12-08T17:44:16.211Z,10.67
2022-12-08T17:46:47.671Z,8.23
2022-12-08T17:49:19.968Z,11.30
2022-12-08T17:51:50.622Z,9.17
2022-12-08T17:54:17.643Z,10.87
2022-12-08T17:56:44.350Z,10.07
2022-12-08T17:59:11.870Z,10.93
2022-12-08T18:01:39.142Z,11.00
2022-12-08T18:04:06.410Z,10.73
2022-12-08T18:06:33.312Z,11.47
2022-12-08T18:09:00.660Z,12.63
2022-12-08T18:11:28.845Z,11.73
2022-12-08T18:13:55.785Z,12.07
2022-12-08T18:16:23.718Z,12.93
2022-12-08T18:18:50.501Z,13.60
2022-12-08T18:21:23.091Z,14.17
2022-12-08T18:23:51.086Z,12.43
2022-12-08T18:26:17.956Z,11.50
2022-12-08T18:28:44.641Z,12.87
2022-12-08T18:31:12.511Z,11.90
2022-12-08T18:33:39.928Z,13.50
2022-12-08T18:36:07.559Z,13.67
2022-12-08T18:38:34.084Z,10.90
2022-12-08T18:41:21.414Z,14.33
2022-12-08T18:43:48.035Z,12.53
2022-12-08T18:46:14.978Z,13.63
2022-12-08T18:48:47.185Z,14.63
2022-12-08T18:51:15.266Z,12.27
2022-12-08T18:53:42.445Z,14.33
2022-12-08T18:56:09.107Z,14.00
2022-12-08T18:58:35.966Z,13.80
2022-12-08T19:01:02.890Z,14.70
2022-12-08T19:03:29.649Z,13.93
2022-12-08T19:06:03.657Z,11.67
2022-12-08T19:08:31.718Z,12.57
2022-12-08T19:10:58.583Z,11.73
2022-12-08T19:13:27.285Z,14.40
2022-12-08T19:15:54.131Z,13.80
2022-12-08T19:18:20.893Z,15.30
2022-12-08T19:20:47.499Z,15.13
2022-12-08T19:23:14.978Z,17.27
2022-12-08T19:25:41.736Z,16.87
2022-12-08T19:28:08.431Z,17.33
2022-12-08T19:30:35.057Z,15.03
2022-12-08T19:33:01.646Z,17.17
2022-12-08T19:35:28.199Z,15.20
2022-12-08T19:37:55.077Z,14.03
2022-12-08T19:40:40.655Z,15.33
2022-12-08T19:43:33.352Z,15.63
2022-12-08T19:46:00.067Z,13.90
2022-12-08T19:48:26.907Z,16.50
2022-12-08T19:50:53.427Z,14.00
2022-12-08T19:53:20.823Z,16.40
2022-12-08T19:55:47.650Z,15.73
2022-12-08T19:58:14.231Z,18.80
2022-12-08T20:00:41.422Z,16.83
2022-12-08T20:03:08.086Z,13.97
2022-12-08T20:05:35.643Z,14.77
2022-12-08T20:08:02.231Z,15.57
2022-12-08T20:10:33.787Z,16.27
2022-12-08T20:13:19.152Z,16.17
2022-12-08T20:15:46.404Z,19.27
2022-12-08T20:18:13.562Z,17.17
2022-12-08T20:20:40.136Z,17.43
2022-12-08T20:23:07.022Z,17.50
2022-12-08T20:25:33.665Z,17.17
2022-12-08T20:28:00.268Z,18.47
2022-12-08T20:30:26.797Z,19.00
2022-12-08T20:32:53.368Z,16.43
2022-12-08T20:35:19.958Z,15.97
2022-12-08T20:37:49.197Z,17.23
2022-12-08T20:40:16.038Z,16.60
2022-12-08T20:42:42.691Z,16.37
2022-12-08T20:45:09.910Z,16.93
2022-12-08T20:47:36.886Z,17.20
2022-12-08T20:50:04.680Z,15.60
2022-12-08T20:52:31.939Z,16.70
2022-12-08T20:54:58.610Z,17.03
2022-12-08T20:57:25.271Z,17.30
2022-12-08T20:59:51.960Z,17.70
2022-12-08T21:02:18.487Z,17.93
2022-12-08T21:04:45.230Z,16.00
2022-12-08T21:07:12.388Z,21.33
2022-12-08T21:09:39.319Z,26.15
2022-12-08T21:12:06.378Z,19.00
2022-12-08T21:14:33.748Z,24.30
2022-12-08T21:17:00.519Z,22.77
2022-12-08T21:19:27.457Z,23.00
2022-12-08T21:21:54.123Z,23.20
2022-12-08T21:24:21.027Z,22.20
2022-12-08T21:26:47.760Z,23.63
2022-12-08T21:29:14.599Z,27.67
2022-12-08T21:31:41.381Z,28.30
2022-12-08T21:34:08.275Z,24.15
2022-12-08T21:36:35.119Z,26.67
2022-12-08T21:39:02.848Z,23.45
2022-12-08T21:41:48.651Z,26.40
2022-12-08T21:44:18.655Z,22.90
2022-12-08T21:46:45.632Z,24.00
2022-12-08T21:49:12.628Z,21.27
2022-12-08T21:51:41.870Z,24.50
2022-12-08T21:54:12.087Z,23.63
2022-12-08T21:56:47.357Z,20.03
2022-12-08T21:59:14.127Z,22.10
2022-12-08T22:01:43.410Z,21.35
2022-12-08T22:04:10.756Z,28.53
2022-12-08T22:06:37.551Z,29.90
2022-12-08T22:09:04.665Z,27.93
2022-12-08T22:11:31.224Z,28.60
2022-12-08T22:13:57.998Z,29.17
2022-12-08T22:16:24.768Z,27.30
2022-12-08T22:18:51.331Z,26.53
2022-12-08T22:21:18.023Z,28.53
2022-12-08T22:23:44.909Z,26.37
2022-12-08T22:26:12.136Z,25.10
2022-12-08T22:28:39.820Z,26.27
2022-12-08T22:31:09.633Z,24.98
2022-12-08T22:33:36.677Z,30.10
2022-12-08T22:36:10.192Z,33.67
2022-12-08T22:38:37.847Z,31.77
2022-12-08T22:41:05.072Z,28.58
2022-12-08T22:43:31.772Z,23.27
2022-12-08T22:45:58.837Z,24.90
2022-12-08T22:48:25.503Z,22.65
2022-12-08T22:50:52.100Z,24.63
2022-12-08T22:53:19.023Z,25.00
2022-12-08T22:55:46.329Z,22.58
2022-12-08T22:58:13.094Z,23.50
2022-12-08T23:00:39.701Z,21.73
2022-12-08T23:03:06.958Z,22.42
2022-12-08T23:05:34.538Z,27.80
2022-12-08T23:08:01.309Z,29.38
2022-12-08T23:10:28.384Z,25.60
2022-12-08T23:12:56.879Z,27.15
2022-12-08T23:15:27.698Z,28.55
2022-12-08T23:17:54.515Z,30.05
2022-12-08T23:20:21.260Z,32.10
2022-12-08T23:22:47.802Z,29.60
2022-12-08T23:25:14.449Z,31.58
2022-12-08T23:27:41.191Z,30.48
2022-12-08T23:30:08.436Z,31.23
2022-12-08T23:32:35.322Z,34.70
2022-12-08T23:35:02.969Z,35.60
2022-12-08T23:37:29.575Z,34.15
2022-12-08T23:39:56.182Z,31.77
2022-12-08T23:42:22.919Z,32.53
2022-12-08T23:44:49.527Z,34.95
2022-12-08T23:47:16.288Z,35.53
2022-12-08T23:49:43.189Z,34.22
2022-12-08T23:52:11.837Z,35.20
2022-12-08T23:54:38.704Z,35.88
2022-12-08T23:57:05.426Z,37.22
2022-12-08T23:59:32.158Z,38.67
